sensor_id;sensor_type;location;lat;lon;timestamp;P1;durP1;ratioP1;P2;durP2;ratioP2
26578;SDS011;14227;47.674;19.320;2022-10-16T00:00:39;19.73;;;11.82;;
26578;SDS011;14227;47.674;19.320;2022-10-16T00:03:06;15.90;;;11.32;;
26578;SDS011;14227;47.674;19.320;2022-10-16T00:05:32;17.67;;;11.73;;
26578;SDS011;14227;47.674;19.320;2022-10-16T00:07:58;22.38;;;12.27;;
26578;SDS011;14227;47.674;19.320;2022-10-16T00:10:24;18.65;;;12.00;;
26578;SDS011;14227;47.674;19.320;2022-10-16T00:12:50;22.08;;;11.52;;
26578;SDS011;14227;47.674;19.320;2022-10-16T00:15:15;19.80;;;12.13;;
26578;SDS011;14227;47.674;19.320;2022-10-16T00:17:41;25.83;;;13.60;;
26578;SDS011;14227;47.674;19.320;2022-10-16T00:20:07;18.83;;;11.95;;
26578;SDS011;14227;47.674;19.320;2022-10-16T00:22:33;18.25;;;11.95;;
26578;SDS011;14227;47.674;19.320;2022-10-16T00:24:58;18.38;;;12.07;;
26578;SDS011;14227;47.674;19.320;2022-10-16T00:27:24;19.45;;;12.32;;
26578;SDS011;14227;47.674;19.320;2022-10-16T00:29:50;20.33;;;11.70;;
26578;SDS011;14227;47.674;19.320;2022-10-16T00:32:17;21.58;;;12.18;;
26578;SDS011;14227;47.674;19.320;2022-10-16T00:34:44;24.33;;;11.93;;
26578;SDS011;14227;47.674;19.320;2022-10-16T00:37:09;19.95;;;11.85;;
26578;SDS011;14227;47.674;19.320;2022-10-16T00:39:35;19.45;;;11.65;;
26578;SDS011;14227;47.674;19.320;2022-10-16T00:42:01;21.80;;;11.88;;
26578;SDS011;14227;47.674;19.320;2022-10-16T00:47:19;18.95;;;12.23;;
26578;SDS011;14227;47.674;19.320;2022-10-16T00:49:53;22.15;;;12.13;;
26578;SDS011;14227;47.674;19.320;2022-10-16T00:52:24;18.38;;;12.30;;
26578;SDS011;14227;47.674;19.320;2022-10-16T00:54:50;17.27;;;11.88;;
26578;SDS011;14227;47.674;19.320;2022-10-16T00:57:19;17.45;;;11.13;;
26578;SDS011;14227;47.674;19.320;2022-10-16T00:59:45;17.27;;;11.82;;
26578;SDS011;14227;47.674;19.320;2022-10-16T01:02:14;18.42;;;11.48;;
26578;SDS011;14227;47.674;19.320;2022-10-16T01:04:44;18.17;;;12.25;;
26578;SDS011;14227;47.674;19.320;2022-10-16T01:10:03;21.35;;;12.93;;
26578;SDS011;14227;47.674;19.320;2022-10-16T01:15:17;21.75;;;12.25;;
26578;SDS011;14227;47.674;19.320;2022-10-16T01:18:09;21.50;;;12.35;;
26578;SDS011;14227;47.674;19.320;2022-10-16T01:20:45;19.85;;;11.60;;
26578;SDS011;14227;47.674;19.320;2022-10-16T01:32:14;19.60;;;10.95;;
26578;SDS011;14227;47.674;19.320;2022-10-16T01:37:45;19.55;;;12.43;;
26578;SDS011;14227;47.674;19.320;2022-10-16T01:40:19;20.13;;;11.88;;
26578;SDS011;14227;47.674;19.320;2022-10-16T01:42:52;19.50;;;12.13;;
26578;SDS011;14227;47.674;19.320;2022-10-16T01:45:36;18.90;;;12.45;;
26578;SDS011;14227;47.674;19.320;2022-10-16T01:48:07;17.58;;;12.02;;
26578;SDS011;14227;47.674;19.320;2022-10-16T01:50:36;22.30;;;12.13;;
26578;SDS011;14227;47.674;19.320;2022-10-16T01:53:05;21.23;;;12.50;;
26578;SDS011;14227;47.674;19.320;2022-10-16T01:55:35;18.17;;;12.50;;
26578;SDS011;14227;47.674;19.320;2022-10-16T01:58:04;17.45;;;11.55;;
26578;SDS011;14227;47.674;19.320;2022-10-16T02:00:34;20.27;;;13.15;;
26578;SDS011;14227;47.674;19.320;2022-10-16T02:03:04;23.60;;;12.85;;
26578;SDS011;14227;47.674;19.320;2022-10-16T02:05:34;21.25;;;13.13;;
26578;SDS011;14227;47.674;19.320;2022-10-16T02:08:16;21.63;;;13.40;;
26578;SDS011;14227;47.674;19.320;2022-10-16T02:10:49;18.33;;;12.35;;
26578;SDS011;14227;47.674;19.320;2022-10-16T02:16:46;17.05;;;11.98;;
26578;SDS011;14227;47.674;19.320;2022-10-16T02:19:18;17.45;;;12.18;;
26578;SDS011;14227;47.674;19.320;2022-10-16T02:21:54;18.27;;;12.25;;
26578;SDS011;14227;47.674;19.320;2022-10-16T02:27:52;20.73;;;12.70;;
26578;SDS011;14227;47.674;19.320;2022-10-16T02:30:45;17.70;;;12.30;;
26578;SDS011;14227;47.674;19.320;2022-10-16T02:33:16;23.00;;;12.27;;
26578;SDS011;14227;47.674;19.320;2022-10-16T02:38:40;21.92;;;11.60;;
26578;SDS011;14227;47.674;19.320;2022-10-16T02:41:08;18.67;;;11.15;;
26578;SDS011;14227;47.674;19.320;2022-10-16T02:44:15;20.40;;;12.40;;
26578;SDS011;14227;47.674;19.320;2022-10-16T02:46:43;16.40;;;12.00;;
26578;SDS011;14227;47.674;19.320;2022-10-16T02:49:36;18.92;;;11.25;;
26578;SDS011;14227;47.674;19.320;2022-10-16T02:54:36;18.30;;;11.57;;
26578;SDS011;14227;47.674;19.320;2022-10-16T02:57:07;19.48;;;11.60;;
26578;SDS011;14227;47.674;19.320;2022-10-16T02:59:49;21.73;;;11.52;;
26578;SDS011;14227;47.674;19.320;2022-10-16T03:02:18;18.85;;;11.82;;
26578;SDS011;14227;47.674;19.320;2022-10-16T03:04:50;17.10;;;11.70;;
26578;SDS011;14227;47.674;19.320;2022-10-16T03:07:25;17.50;;;12.50;;
26578;SDS011;14227;47.674;19.320;2022-10-16T03:09:54;20.15;;;12.55;;
26578;SDS011;14227;47.674;19.320;2022-10-16T03:12:21;17.63;;;11.65;;
26578;SDS011;14227;47.674;19.320;2022-10-16T03:14:48;17.40;;;11.98;;
26578;SDS011;14227;47.674;19.320;2022-10-16T03:17:17;18.35;;;12.18;;
26578;SDS011;14227;47.674;19.320;2022-10-16T03:19:51;21.23;;;12.15;;
26578;SDS011;14227;47.674;19.320;2022-10-16T03:23:02;24.25;;;12.68;;
26578;SDS011;14227;47.674;19.320;2022-10-16T03:25:32;20.17;;;12.93;;
26578;SDS011;14227;47.674;19.320;2022-10-16T03:28:23;25.40;;;14.52;;
26578;SDS011;14227;47.674;19.320;2022-10-16T03:37:01;26.42;;;15.65;;
26578;SDS011;14227;47.674;19.320;2022-10-16T03:39:34;23.38;;;15.23;;
26578;SDS011;14227;47.674;19.320;2022-10-16T03:42:25;21.52;;;14.65;;
26578;SDS011;14227;47.674;19.320;2022-10-16T03:51:19;23.65;;;15.05;;
26578;SDS011;14227;47.674;19.320;2022-10-16T03:54:29;21.80;;;13.43;;
26578;SDS011;14227;47.674;19.320;2022-10-16T03:56:57;19.48;;;13.55;;
26578;SDS011;14227;47.674;19.320;2022-10-16T03:59:35;18.08;;;12.77;;
26578;SDS011;14227;47.674;19.320;2022-10-16T04:02:14;22.17;;;13.35;;
26578;SDS011;14227;47.674;19.320;2022-10-16T04:04:53;21.55;;;13.85;;
26578;SDS011;14227;47.674;19.320;2022-10-16T04:07:32;26.27;;;13.45;;
26578;SDS011;14227;47.674;19.320;2022-10-16T04:10:20;22.75;;;14.10;;
26578;SDS011;14227;47.674;19.320;2022-10-16T04:16:29;26.55;;;13.80;;
26578;SDS011;14227;47.674;19.320;2022-10-16T04:19:28;22.23;;;13.10;;
26578;SDS011;14227;47.674;19.320;2022-10-16T04:22:19;22.67;;;12.85;;
26578;SDS011;14227;47.674;19.320;2022-10-16T04:24:49;22.25;;;13.10;;
26578;SDS011;14227;47.674;19.320;2022-10-16T04:27:19;23.25;;;12.35;;
26578;SDS011;14227;47.674;19.320;2022-10-16T04:29:47;22.88;;;12.43;;
26578;SDS011;14227;47.674;19.320;2022-10-16T04:32:14;17.85;;;12.35;;
26578;SDS011;14227;47.674;19.320;2022-10-16T04:34:49;17.27;;;12.32;;
26578;SDS011;14227;47.674;19.320;2022-10-16T04:37:40;21.20;;;12.32;;
26578;SDS011;14227;47.674;19.320;2022-10-16T04:40:07;23.55;;;12.40;;
26578;SDS011;14227;47.674;19.320;2022-10-16T04:42:34;18.00;;;12.00;;
26578;SDS011;14227;47.674;19.320;2022-10-16T04:45:02;17.33;;;12.50;;
26578;SDS011;14227;47.674;19.320;2022-10-16T04:47:33;27.08;;;13.63;;
26578;SDS011;14227;47.674;19.320;2022-10-16T04:50:03;17.30;;;12.43;;
26578;SDS011;14227;47.674;19.320;2022-10-16T04:52:53;29.13;;;13.35;;
26578;SDS011;14227;47.674;19.320;2022-10-16T04:55:21;16.92;;;11.35;;
26578;SDS011;14227;47.674;19.320;2022-10-16T04:57:46;18.30;;;12.10;;
26578;SDS011;14227;47.674;19.320;2022-10-16T05:00:12;17.77;;;11.98;;
26578;SDS011;14227;47.674;19.320;2022-10-16T05:02:39;18.45;;;12.00;;
26578;SDS011;14227;47.674;19.320;2022-10-16T05:05:07;18.92;;;11.98;;
26578;SDS011;14227;47.674;19.320;2022-10-16T05:07:33;18.10;;;12.35;;
26578;SDS011;14227;47.674;19.320;2022-10-16T05:09:59;16.73;;;12.68;;
26578;SDS011;14227;47.674;19.320;2022-10-16T05:12:25;14.95;;;10.90;;
26578;SDS011;14227;47.674;19.320;2022-10-16T05:14:51;20.58;;;12.98;;
26578;SDS011;14227;47.674;19.320;2022-10-16T05:17:23;16.58;;;12.05;;
26578;SDS011;14227;47.674;19.320;2022-10-16T05:20:06;20.95;;;12.30;;
26578;SDS011;14227;47.674;19.320;2022-10-16T05:22:33;20.63;;;12.80;;
26578;SDS011;14227;47.674;19.320;2022-10-16T05:25:00;15.48;;;10.88;;
26578;SDS011;14227;47.674;19.320;2022-10-16T05:27:26;20.00;;;11.75;;
26578;SDS011;14227;47.674;19.320;2022-10-16T05:29:52;22.63;;;13.00;;
26578;SDS011;14227;47.674;19.320;2022-10-16T05:32:18;20.23;;;13.13;;
26578;SDS011;14227;47.674;19.320;2022-10-16T05:34:44;22.85;;;13.18;;
26578;SDS011;14227;47.674;19.320;2022-10-16T05:37:11;20.17;;;12.07;;
26578;SDS011;14227;47.674;19.320;2022-10-16T05:39:37;24.92;;;13.02;;
26578;SDS011;14227;47.674;19.320;2022-10-16T05:42:03;26.10;;;13.93;;
26578;SDS011;14227;47.674;19.320;2022-10-16T05:44:30;21.77;;;13.27;;
26578;SDS011;14227;47.674;19.320;2022-10-16T05:46:56;25.00;;;13.32;;
26578;SDS011;14227;47.674;19.320;2022-10-16T05:49:22;26.88;;;14.30;;
26578;SDS011;14227;47.674;19.320;2022-10-16T05:51:48;27.42;;;12.50;;
26578;SDS011;14227;47.674;19.320;2022-10-16T05:54:13;23.88;;;12.88;;
26578;SDS011;14227;47.674;19.320;2022-10-16T05:56:39;24.58;;;12.90;;
26578;SDS011;14227;47.674;19.320;2022-10-16T05:59:05;26.90;;;12.93;;
26578;SDS011;14227;47.674;19.320;2022-10-16T06:01:30;28.00;;;13.32;;
26578;SDS011;14227;47.674;19.320;2022-10-16T06:03:56;23.15;;;13.02;;
26578;SDS011;14227;47.674;19.320;2022-10-16T06:06:24;24.20;;;13.32;;
26578;SDS011;14227;47.674;19.320;2022-10-16T06:08:51;25.13;;;14.32;;
26578;SDS011;14227;47.674;19.320;2022-10-16T06:11:18;27.15;;;14.13;;
26578;SDS011;14227;47.674;19.320;2022-10-16T06:13:52;25.77;;;14.00;;
26578;SDS011;14227;47.674;19.320;2022-10-16T06:16:19;19.58;;;13.98;;
26578;SDS011;14227;47.674;19.320;2022-10-16T06:18:45;19.88;;;12.88;;
26578;SDS011;14227;47.674;19.320;2022-10-16T06:21:17;22.88;;;13.95;;
26578;SDS011;14227;47.674;19.320;2022-10-16T06:23:44;24.17;;;13.93;;
26578;SDS011;14227;47.674;19.320;2022-10-16T06:26:13;20.30;;;12.30;;
26578;SDS011;14227;47.674;19.320;2022-10-16T06:28:40;20.00;;;13.48;;
26578;SDS011;14227;47.674;19.320;2022-10-16T06:31:06;23.33;;;12.07;;
26578;SDS011;14227;47.674;19.320;2022-10-16T06:33:33;21.17;;;13.57;;
26578;SDS011;14227;47.674;19.320;2022-10-16T06:36:04;17.15;;;12.68;;
26578;SDS011;14227;47.674;19.320;2022-10-16T06:38:33;17.83;;;10.82;;
26578;SDS011;14227;47.674;19.320;2022-10-16T06:40:59;20.33;;;11.80;;
26578;SDS011;14227;47.674;19.320;2022-10-16T06:43:25;19.45;;;11.70;;
26578;SDS011;14227;47.674;19.320;2022-10-16T06:45:54;18.13;;;11.68;;
26578;SDS011;14227;47.674;19.320;2022-10-16T06:48:20;15.45;;;10.75;;
26578;SDS011;14227;47.674;19.320;2022-10-16T06:53:37;18.77;;;11.88;;
26578;SDS011;14227;47.674;19.320;2022-10-16T06:58:37;18.83;;;11.98;;
26578;SDS011;14227;47.674;19.320;2022-10-16T07:01:04;18.75;;;11.63;;
26578;SDS011;14227;47.674;19.320;2022-10-16T07:03:30;16.80;;;10.95;;
26578;SDS011;14227;47.674;19.320;2022-10-16T07:05:55;18.58;;;12.43;;
26578;SDS011;14227;47.674;19.320;2022-10-16T07:08:21;19.45;;;12.05;;
26578;SDS011;14227;47.674;19.320;2022-10-16T07:10:47;19.83;;;11.77;;
26578;SDS011;14227;47.674;19.320;2022-10-16T07:13:13;17.80;;;12.52;;
26578;SDS011;14227;47.674;19.320;2022-10-16T07:15:39;15.95;;;11.93;;
26578;SDS011;14227;47.674;19.320;2022-10-16T07:18:05;22.80;;;11.38;;
26578;SDS011;14227;47.674;19.320;2022-10-16T07:20:31;17.73;;;10.93;;
26578;SDS011;14227;47.674;19.320;2022-10-16T07:22:57;18.33;;;11.32;;
26578;SDS011;14227;47.674;19.320;2022-10-16T07:25:23;29.67;;;11.23;;
26578;SDS011;14227;47.674;19.320;2022-10-16T07:27:49;25.77;;;10.68;;
26578;SDS011;14227;47.674;19.320;2022-10-16T07:30:14;17.75;;;11.65;;
26578;SDS011;14227;47.674;19.320;2022-10-16T07:32:40;25.60;;;10.63;;
26578;SDS011;14227;47.674;19.320;2022-10-16T07:35:06;16.55;;;10.52;;
26578;SDS011;14227;47.674;19.320;2022-10-16T07:37:32;19.27;;;10.43;;
26578;SDS011;14227;47.674;19.320;2022-10-16T07:39:57;16.25;;;9.70;;
26578;SDS011;14227;47.674;19.320;2022-10-16T07:42:23;18.02;;;10.57;;
26578;SDS011;14227;47.674;19.320;2022-10-16T07:44:49;15.65;;;10.10;;
26578;SDS011;14227;47.674;19.320;2022-10-16T07:47:14;31.83;;;10.90;;
26578;SDS011;14227;47.674;19.320;2022-10-16T07:49:40;12.98;;;10.07;;
26578;SDS011;14227;47.674;19.320;2022-10-16T07:52:06;33.53;;;9.88;;
26578;SDS011;14227;47.674;19.320;2022-10-16T07:54:32;18.50;;;9.68;;
26578;SDS011;14227;47.674;19.320;2022-10-16T07:56:57;26.23;;;10.48;;
26578;SDS011;14227;47.674;19.320;2022-10-16T07:59:23;15.15;;;9.88;;
26578;SDS011;14227;47.674;19.320;2022-10-16T08:01:49;18.50;;;10.05;;
26578;SDS011;14227;47.674;19.320;2022-10-16T08:04:15;16.63;;;9.27;;
26578;SDS011;14227;47.674;19.320;2022-10-16T08:06:41;15.13;;;9.98;;
26578;SDS011;14227;47.674;19.320;2022-10-16T08:09:07;17.90;;;10.00;;
26578;SDS011;14227;47.674;19.320;2022-10-16T08:11:33;16.60;;;9.13;;
26578;SDS011;14227;47.674;19.320;2022-10-16T08:13:59;18.95;;;9.88;;
26578;SDS011;14227;47.674;19.320;2022-10-16T08:16:25;20.02;;;9.63;;
26578;SDS011;14227;47.674;19.320;2022-10-16T08:18:51;22.10;;;10.20;;
26578;SDS011;14227;47.674;19.320;2022-10-16T08:21:18;14.20;;;9.57;;
26578;SDS011;14227;47.674;19.320;2022-10-16T08:23:45;17.40;;;10.70;;
26578;SDS011;14227;47.674;19.320;2022-10-16T08:26:11;65.85;;;12.20;;
26578;SDS011;14227;47.674;19.320;2022-10-16T08:28:37;17.67;;;9.68;;
26578;SDS011;14227;47.674;19.320;2022-10-16T08:31:08;16.35;;;10.40;;
26578;SDS011;14227;47.674;19.320;2022-10-16T08:33:38;20.55;;;14.50;;
26578;SDS011;14227;47.674;19.320;2022-10-16T08:36:06;19.75;;;9.93;;
26578;SDS011;14227;47.674;19.320;2022-10-16T08:38:32;24.48;;;16.38;;
26578;SDS011;14227;47.674;19.320;2022-10-16T08:44:07;15.73;;;10.77;;
26578;SDS011;14227;47.674;19.320;2022-10-16T08:49:57;32.60;;;19.45;;
26578;SDS011;14227;47.674;19.320;2022-10-16T08:52:34;25.98;;;19.52;;
26578;SDS011;14227;47.674;19.320;2022-10-16T08:55:03;24.60;;;12.93;;
26578;SDS011;14227;47.674;19.320;2022-10-16T08:57:29;20.67;;;12.88;;
26578;SDS011;14227;47.674;19.320;2022-10-16T08:59:57;28.00;;;14.60;;
26578;SDS011;14227;47.674;19.320;2022-10-16T09:02:37;18.17;;;11.07;;
26578;SDS011;14227;47.674;19.320;2022-10-16T09:05:21;14.80;;;9.32;;
26578;SDS011;14227;47.674;19.320;2022-10-16T09:08:05;14.40;;;10.43;;
26578;SDS011;14227;47.674;19.320;2022-10-16T09:16:19;19.23;;;10.15;;
26578;SDS011;14227;47.674;19.320;2022-10-16T09:21:39;15.90;;;7.93;;
26578;SDS011;14227;47.674;19.320;2022-10-16T09:24:19;16.17;;;9.77;;
26578;SDS011;14227;47.674;19.320;2022-10-16T09:26:49;31.85;;;9.75;;
26578;SDS011;14227;47.674;19.320;2022-10-16T09:29:15;27.35;;;9.27;;
26578;SDS011;14227;47.674;19.320;2022-10-16T09:31:42;36.85;;;11.25;;
26578;SDS011;14227;47.674;19.320;2022-10-16T09:34:16;13.00;;;8.30;;
26578;SDS011;14227;47.674;19.320;2022-10-16T09:36:53;18.13;;;10.45;;
26578;SDS011;14227;47.674;19.320;2022-10-16T09:39:22;14.13;;;8.13;;
26578;SDS011;14227;47.674;19.320;2022-10-16T09:41:47;16.30;;;10.02;;
26578;SDS011;14227;47.674;19.320;2022-10-16T09:46:43;21.15;;;12.27;;
26578;SDS011;14227;47.674;19.320;2022-10-16T09:49:20;13.98;;;9.05;;
26578;SDS011;14227;47.674;19.320;2022-10-16T09:51:50;15.15;;;9.30;;
26578;SDS011;14227;47.674;19.320;2022-10-16T09:54:27;17.23;;;10.02;;
26578;SDS011;14227;47.674;19.320;2022-10-16T09:57:03;16.23;;;10.00;;
26578;SDS011;14227;47.674;19.320;2022-10-16T09:59:32;19.25;;;11.70;;
26578;SDS011;14227;47.674;19.320;2022-10-16T10:02:01;18.55;;;9.65;;
26578;SDS011;14227;47.674;19.320;2022-10-16T10:04:37;17.25;;;10.43;;
26578;SDS011;14227;47.674;19.320;2022-10-16T10:07:05;15.85;;;7.85;;
26578;SDS011;14227;47.674;19.320;2022-10-16T10:09:42;14.68;;;9.52;;
26578;SDS011;14227;47.674;19.320;2022-10-16T10:12:27;29.30;;;13.63;;
26578;SDS011;14227;47.674;19.320;2022-10-16T10:14:57;17.98;;;9.25;;
26578;SDS011;14227;47.674;19.320;2022-10-16T10:17:29;57.88;;;14.55;;
26578;SDS011;14227;47.674;19.320;2022-10-16T10:19:56;19.98;;;8.50;;
26578;SDS011;14227;47.674;19.320;2022-10-16T10:22:26;16.80;;;8.75;;
26578;SDS011;14227;47.674;19.320;2022-10-16T10:30:26;21.65;;;8.80;;
26578;SDS011;14227;47.674;19.320;2022-10-16T10:52:13;17.15;;;9.48;;
26578;SDS011;14227;47.674;19.320;2022-10-16T10:57:57;19.23;;;9.18;;
26578;SDS011;14227;47.674;19.320;2022-10-16T11:06:32;15.73;;;8.00;;
26578;SDS011;14227;47.674;19.320;2022-10-16T11:09:23;15.57;;;9.95;;
26578;SDS011;14227;47.674;19.320;2022-10-16T11:11:54;17.52;;;8.60;;
26578;SDS011;14227;47.674;19.320;2022-10-16T11:14:26;16.50;;;8.43;;
26578;SDS011;14227;47.674;19.320;2022-10-16T11:17:08;12.95;;;6.80;;
26578;SDS011;14227;47.674;19.320;2022-10-16T11:22:48;12.10;;;7.63;;
26578;SDS011;14227;47.674;19.320;2022-10-16T11:25:30;10.05;;;6.88;;
26578;SDS011;14227;47.674;19.320;2022-10-16T11:30:59;8.85;;;6.38;;
26578;SDS011;14227;47.674;19.320;2022-10-16T11:38:51;15.50;;;6.80;;
26578;SDS011;14227;47.674;19.320;2022-10-16T11:41:34;12.05;;;5.82;;
26578;SDS011;14227;47.674;19.320;2022-10-16T11:49:44;14.77;;;6.15;;
26578;SDS011;14227;47.674;19.320;2022-10-16T11:52:17;13.55;;;6.13;;
26578;SDS011;14227;47.674;19.320;2022-10-16T11:55:16;20.25;;;7.45;;
26578;SDS011;14227;47.674;19.320;2022-10-16T12:00:22;11.80;;;6.32;;
26578;SDS011;14227;47.674;19.320;2022-10-16T12:03:05;16.75;;;6.47;;
26578;SDS011;14227;47.674;19.320;2022-10-16T12:08:15;10.55;;;6.03;;
26578;SDS011;14227;47.674;19.320;2022-10-16T12:10:42;10.57;;;5.68;;
26578;SDS011;14227;47.674;19.320;2022-10-16T12:16:05;600.70;;;34.00;;
26578;SDS011;14227;47.674;19.320;2022-10-16T12:18:43;20.23;;;6.63;;
26578;SDS011;14227;47.674;19.320;2022-10-16T12:21:10;10.23;;;5.72;;
26578;SDS011;14227;47.674;19.320;2022-10-16T12:23:51;16.23;;;5.57;;
26578;SDS011;14227;47.674;19.320;2022-10-16T12:26:31;55.72;;;8.32;;
26578;SDS011;14227;47.674;19.320;2022-10-16T12:31:48;9.18;;;5.60;;
26578;SDS011;14227;47.674;19.320;2022-10-16T12:37:14;15.38;;;5.45;;
26578;SDS011;14227;47.674;19.320;2022-10-16T12:39:52;11.20;;;6.40;;
26578;SDS011;14227;47.674;19.320;2022-10-16T12:42:20;10.88;;;5.70;;
26578;SDS011;14227;47.674;19.320;2022-10-16T12:44:52;13.68;;;5.88;;
26578;SDS011;14227;47.674;19.320;2022-10-16T12:47:20;15.02;;;6.60;;
26578;SDS011;14227;47.674;19.320;2022-10-16T12:50:00;8.95;;;5.18;;
26578;SDS011;14227;47.674;19.320;2022-10-16T12:52:37;14.60;;;5.72;;
26578;SDS011;14227;47.674;19.320;2022-10-16T12:55:04;16.13;;;6.18;;
26578;SDS011;14227;47.674;19.320;2022-10-16T13:19:35;12.88;;;5.75;;
26578;SDS011;14227;47.674;19.320;2022-10-16T13:28:05;15.77;;;5.57;;
26578;SDS011;14227;47.674;19.320;2022-10-16T13:30:42;11.82;;;5.35;;
26578;SDS011;14227;47.674;19.320;2022-10-16T13:35:49;8.02;;;4.38;;
26578;SDS011;14227;47.674;19.320;2022-10-16T13:38:21;11.90;;;5.22;;
26578;SDS011;14227;47.674;19.320;2022-10-16T13:40:53;8.35;;;5.32;;
26578;SDS011;14227;47.674;19.320;2022-10-16T13:43:35;15.10;;;5.25;;
26578;SDS011;14227;47.674;19.320;2022-10-16T13:46:05;9.38;;;4.30;;
26578;SDS011;14227;47.674;19.320;2022-10-16T13:48:39;17.20;;;6.00;;
26578;SDS011;14227;47.674;19.320;2022-10-16T13:51:06;10.80;;;4.82;;
26578;SDS011;14227;47.674;19.320;2022-10-16T13:53:42;10.40;;;4.65;;
26578;SDS011;14227;47.674;19.320;2022-10-16T13:56:16;7.60;;;5.18;;
26578;SDS011;14227;47.674;19.320;2022-10-16T13:58:44;14.32;;;5.47;;
26578;SDS011;14227;47.674;19.320;2022-10-16T14:01:18;8.20;;;5.00;;
26578;SDS011;14227;47.674;19.320;2022-10-16T14:03:47;9.98;;;5.22;;
26578;SDS011;14227;47.674;19.320;2022-10-16T14:06:16;10.05;;;4.57;;
26578;SDS011;14227;47.674;19.320;2022-10-16T14:08:48;14.55;;;4.38;;
26578;SDS011;14227;47.674;19.320;2022-10-16T14:11:45;7.72;;;5.00;;
26578;SDS011;14227;47.674;19.320;2022-10-16T14:14:16;11.40;;;4.75;;
26578;SDS011;14227;47.674;19.320;2022-10-16T14:16:43;6.88;;;4.53;;
26578;SDS011;14227;47.674;19.320;2022-10-16T14:19:27;13.05;;;5.40;;
26578;SDS011;14227;47.674;19.320;2022-10-16T14:21:54;6.80;;;4.47;;
26578;SDS011;14227;47.674;19.320;2022-10-16T14:26:55;8.95;;;5.32;;
26578;SDS011;14227;47.674;19.320;2022-10-16T14:29:21;11.05;;;5.18;;
26578;SDS011;14227;47.674;19.320;2022-10-16T14:32:01;10.52;;;5.40;;
26578;SDS011;14227;47.674;19.320;2022-10-16T14:34:37;12.25;;;4.70;;
26578;SDS011;14227;47.674;19.320;2022-10-16T14:39:50;7.75;;;4.47;;
26578;SDS011;14227;47.674;19.320;2022-10-16T14:42:18;14.55;;;4.47;;
26578;SDS011;14227;47.674;19.320;2022-10-16T14:44:45;7.53;;;4.60;;
26578;SDS011;14227;47.674;19.320;2022-10-16T14:47:15;11.98;;;5.03;;
26578;SDS011;14227;47.674;19.320;2022-10-16T14:49:47;5.82;;;4.35;;
26578;SDS011;14227;47.674;19.320;2022-10-16T14:52:13;11.07;;;4.78;;
26578;SDS011;14227;47.674;19.320;2022-10-16T14:54:39;13.07;;;4.85;;
26578;SDS011;14227;47.674;19.320;2022-10-16T14:57:05;12.60;;;4.78;;
26578;SDS011;14227;47.674;19.320;2022-10-16T14:59:39;11.50;;;5.20;;
26578;SDS011;14227;47.674;19.320;2022-10-16T15:04:48;8.90;;;4.78;;
26578;SDS011;14227;47.674;19.320;2022-10-16T15:07:14;9.50;;;4.85;;
26578;SDS011;14227;47.674;19.320;2022-10-16T15:09:40;18.85;;;6.00;;
26578;SDS011;14227;47.674;19.320;2022-10-16T15:12:05;15.52;;;5.38;;
26578;SDS011;14227;47.674;19.320;2022-10-16T15:14:31;12.77;;;5.38;;
26578;SDS011;14227;47.674;19.320;2022-10-16T15:16:56;10.68;;;5.30;;
26578;SDS011;14227;47.674;19.320;2022-10-16T15:19:22;13.40;;;5.50;;
26578;SDS011;14227;47.674;19.320;2022-10-16T15:21:48;10.20;;;5.65;;
26578;SDS011;14227;47.674;19.320;2022-10-16T15:24:14;11.85;;;6.15;;
26578;SDS011;14227;47.674;19.320;2022-10-16T15:26:40;14.85;;;6.10;;
26578;SDS011;14227;47.674;19.320;2022-10-16T15:29:06;14.70;;;6.20;;
26578;SDS011;14227;47.674;19.320;2022-10-16T15:31:33;12.82;;;6.50;;
26578;SDS011;14227;47.674;19.320;2022-10-16T15:33:59;17.05;;;5.63;;
26578;SDS011;14227;47.674;19.320;2022-10-16T15:36:30;13.73;;;5.40;;
26578;SDS011;14227;47.674;19.320;2022-10-16T15:38:59;22.23;;;6.05;;
26578;SDS011;14227;47.674;19.320;2022-10-16T15:41:25;18.38;;;6.68;;
26578;SDS011;14227;47.674;19.320;2022-10-16T15:43:50;13.40;;;5.97;;
26578;SDS011;14227;47.674;19.320;2022-10-16T15:46:20;13.82;;;9.63;;
26578;SDS011;14227;47.674;19.320;2022-10-16T15:48:48;19.27;;;7.40;;
26578;SDS011;14227;47.674;19.320;2022-10-16T15:51:14;18.17;;;6.90;;
26578;SDS011;14227;47.674;19.320;2022-10-16T15:53:41;14.13;;;7.43;;
26578;SDS011;14227;47.674;19.320;2022-10-16T15:56:07;18.85;;;7.75;;
26578;SDS011;14227;47.674;19.320;2022-10-16T15:58:34;14.88;;;8.20;;
26578;SDS011;14227;47.674;19.320;2022-10-16T16:01:00;23.05;;;8.68;;
26578;SDS011;14227;47.674;19.320;2022-10-16T16:03:28;16.58;;;9.85;;
26578;SDS011;14227;47.674;19.320;2022-10-16T16:05:55;22.33;;;11.48;;
26578;SDS011;14227;47.674;19.320;2022-10-16T16:08:20;21.33;;;12.13;;
26578;SDS011;14227;47.674;19.320;2022-10-16T16:10:56;31.50;;;16.13;;
26578;SDS011;14227;47.674;19.320;2022-10-16T16:13:23;29.55;;;17.33;;
26578;SDS011;14227;47.674;19.320;2022-10-16T16:15:49;25.40;;;15.50;;
26578;SDS011;14227;47.674;19.320;2022-10-16T16:18:14;24.20;;;13.93;;
26578;SDS011;14227;47.674;19.320;2022-10-16T16:20:40;27.75;;;14.23;;
26578;SDS011;14227;47.674;19.320;2022-10-16T16:23:06;38.85;;;15.75;;
26578;SDS011;14227;47.674;19.320;2022-10-16T16:25:31;28.80;;;17.40;;
26578;SDS011;14227;47.674;19.320;2022-10-16T16:27:57;29.85;;;14.45;;
26578;SDS011;14227;47.674;19.320;2022-10-16T16:30:23;27.70;;;15.20;;
26578;SDS011;14227;47.674;19.320;2022-10-16T16:32:48;30.15;;;14.15;;
26578;SDS011;14227;47.674;19.320;2022-10-16T16:35:14;47.67;;;16.25;;
26578;SDS011;14227;47.674;19.320;2022-10-16T16:37:40;37.03;;;15.88;;
26578;SDS011;14227;47.674;19.320;2022-10-16T16:40:05;42.22;;;17.17;;
26578;SDS011;14227;47.674;19.320;2022-10-16T16:42:31;38.15;;;16.33;;
26578;SDS011;14227;47.674;19.320;2022-10-16T16:44:57;33.45;;;16.65;;
26578;SDS011;14227;47.674;19.320;2022-10-16T16:47:22;34.35;;;16.00;;
26578;SDS011;14227;47.674;19.320;2022-10-16T16:49:48;37.13;;;17.58;;
26578;SDS011;14227;47.674;19.320;2022-10-16T16:52:14;34.80;;;17.60;;
26578;SDS011;14227;47.674;19.320;2022-10-16T16:54:40;39.00;;;17.80;;
26578;SDS011;14227;47.674;19.320;2022-10-16T16:57:05;35.90;;;21.90;;
26578;SDS011;14227;47.674;19.320;2022-10-16T16:59:31;55.38;;;26.45;;
26578;SDS011;14227;47.674;19.320;2022-10-16T17:01:58;55.97;;;32.75;;
26578;SDS011;14227;47.674;19.320;2022-10-16T17:04:25;52.65;;;31.30;;
26578;SDS011;14227;47.674;19.320;2022-10-16T17:06:52;51.17;;;27.40;;
26578;SDS011;14227;47.674;19.320;2022-10-16T17:09:19;43.80;;;22.48;;
26578;SDS011;14227;47.674;19.320;2022-10-16T17:11:45;39.60;;;23.00;;
26578;SDS011;14227;47.674;19.320;2022-10-16T17:14:13;46.00;;;23.90;;
26578;SDS011;14227;47.674;19.320;2022-10-16T17:16:40;33.58;;;17.20;;
26578;SDS011;14227;47.674;19.320;2022-10-16T17:19:13;38.35;;;14.93;;
26578;SDS011;14227;47.674;19.320;2022-10-16T17:21:41;39.60;;;18.63;;
26578;SDS011;14227;47.674;19.320;2022-10-16T17:24:08;41.60;;;22.67;;
26578;SDS011;14227;47.674;19.320;2022-10-16T17:26:34;47.35;;;23.58;;